sensor_id;sensor_type;location;lat;lon;timestamp;P1;durP1;ratioP1;P2;durP2;ratioP2
49978;SDS011;35869;50.990;6.962;2023-06-14T00:00:34;6.32;;;4.82;;
49978;SDS011;35869;50.990;6.962;2023-06-14T00:05:34;5.15;;;4.65;;
49978;SDS011;35869;50.990;6.962;2023-06-14T00:10:34;5.85;;;5.22;;
49978;SDS011;35869;50.990;6.962;2023-06-14T00:15:35;5.35;;;4.75;;
49978;SDS011;35869;50.990;6.962;2023-06-14T00:20:36;5.25;;;4.20;;
49978;SDS011;35869;50.990;6.962;2023-06-14T00:25:36;6.55;;;4.47;;
49978;SDS011;35869;50.990;6.962;2023-06-14T00:30:36;5.88;;;4.40;;
49978;SDS011;35869;50.990;6.962;2023-06-14T00:35:36;7.57;;;5.03;;
49978;SDS011;35869;50.990;6.962;2023-06-14T00:40:37;4.50;;;4.10;;
49978;SDS011;35869;50.990;6.962;2023-06-14T00:45:37;6.55;;;4.82;;
49978;SDS011;35869;50.990;6.962;2023-06-14T00:50:37;4.95;;;4.22;;
49978;SDS011;35869;50.990;6.962;2023-06-14T00:55:37;5.83;;;4.77;;
49978;SDS011;35869;50.990;6.962;2023-06-14T01:00:38;6.63;;;4.45;;
49978;SDS011;35869;50.990;6.962;2023-06-14T01:05:38;6.03;;;4.70;;
49978;SDS011;35869;50.990;6.962;2023-06-14T01:10:51;6.60;;;4.87;;
49978;SDS011;35869;50.990;6.962;2023-06-14T01:15:56;5.95;;;4.68;;
49978;SDS011;35869;50.990;6.962;2023-06-14T01:20:57;5.35;;;4.85;;
49978;SDS011;35869;50.990;6.962;2023-06-14T01:25:57;9.00;;;4.50;;
49978;SDS011;35869;50.990;6.962;2023-06-14T01:30:59;5.47;;;4.67;;
49978;SDS011;35869;50.990;6.962;2023-06-14T01:36:00;5.93;;;4.97;;
49978;SDS011;35869;50.990;6.962;2023-06-14T01:41:02;6.50;;;5.13;;
49978;SDS011;35869;50.990;6.962;2023-06-14T01:46:03;5.30;;;4.40;;
49978;SDS011;35869;50.990;6.962;2023-06-14T01:51:05;5.05;;;4.55;;
49978;SDS011;35869;50.990;6.962;2023-06-14T01:56:06;5.37;;;4.80;;
49978;SDS011;35869;50.990;6.962;2023-06-14T02:01:06;5.20;;;4.70;;
49978;SDS011;35869;50.990;6.962;2023-06-14T02:06:07;6.00;;;5.20;;
49978;SDS011;35869;50.990;6.962;2023-06-14T02:11:07;5.32;;;4.78;;
49978;SDS011;35869;50.990;6.962;2023-06-14T02:16:08;4.93;;;4.05;;
49978;SDS011;35869;50.990;6.962;2023-06-14T02:21:08;4.73;;;4.27;;
49978;SDS011;35869;50.990;6.962;2023-06-14T02:26:08;7.07;;;4.63;;
49978;SDS011;35869;50.990;6.962;2023-06-14T02:31:08;6.17;;;4.33;;
49978;SDS011;35869;50.990;6.962;2023-06-14T02:36:09;5.40;;;4.90;;
49978;SDS011;35869;50.990;6.962;2023-06-14T02:41:09;4.80;;;4.30;;
49978;SDS011;35869;50.990;6.962;2023-06-14T02:46:09;6.00;;;5.45;;
49978;SDS011;35869;50.990;6.962;2023-06-14T02:51:09;5.78;;;4.63;;
49978;SDS011;35869;50.990;6.962;2023-06-14T02:56:09;5.60;;;5.10;;
49978;SDS011;35869;50.990;6.962;2023-06-14T03:01:10;6.60;;;5.63;;
49978;SDS011;35869;50.990;6.962;2023-06-14T03:06:10;6.43;;;5.25;;
49978;SDS011;35869;50.990;6.962;2023-06-14T03:11:11;5.60;;;5.10;;
49978;SDS011;35869;50.990;6.962;2023-06-14T03:16:11;8.20;;;5.43;;
49978;SDS011;35869;50.990;6.962;2023-06-14T03:21:11;7.20;;;5.60;;
49978;SDS011;35869;50.990;6.962;2023-06-14T03:26:11;7.40;;;5.03;;
49978;SDS011;35869;50.990;6.962;2023-06-14T03:31:12;5.70;;;4.57;;
49978;SDS011;35869;50.990;6.962;2023-06-14T03:36:13;5.60;;;4.93;;
49978;SDS011;35869;50.990;6.962;2023-06-14T03:41:13;5.35;;;4.85;;
49978;SDS011;35869;50.990;6.962;2023-06-14T03:46:13;5.95;;;5.35;;
49978;SDS011;35869;50.990;6.962;2023-06-14T03:51:13;6.00;;;5.27;;
49978;SDS011;35869;50.990;6.962;2023-06-14T03:56:14;6.55;;;5.85;;
49978;SDS011;35869;50.990;6.962;2023-06-14T04:01:14;5.72;;;5.22;;
49978;SDS011;35869;50.990;6.962;2023-06-14T04:06:14;5.38;;;4.57;;
49978;SDS011;35869;50.990;6.962;2023-06-14T04:11:15;8.05;;;5.47;;
49978;SDS011;35869;50.990;6.962;2023-06-14T04:21:15;6.85;;;5.93;;
49978;SDS011;35869;50.990;6.962;2023-06-14T04:26:15;7.45;;;6.22;;
49978;SDS011;35869;50.990;6.962;2023-06-14T04:31:16;8.82;;;5.80;;
49978;SDS011;35869;50.990;6.962;2023-06-14T04:41:22;7.35;;;5.10;;
49978;SDS011;35869;50.990;6.962;2023-06-14T04:46:22;7.47;;;4.60;;
49978;SDS011;35869;50.990;6.962;2023-06-14T04:51:23;6.78;;;4.53;;
49978;SDS011;35869;50.990;6.962;2023-06-14T04:56:24;4.72;;;4.28;;
49978;SDS011;35869;50.990;6.962;2023-06-14T05:01:24;4.93;;;4.35;;
49978;SDS011;35869;50.990;6.962;2023-06-14T05:06:25;6.45;;;4.20;;
49978;SDS011;35869;50.990;6.962;2023-06-14T05:16:25;7.85;;;4.38;;
49978;SDS011;35869;50.990;6.962;2023-06-14T05:21:25;5.22;;;4.30;;
49978;SDS011;35869;50.990;6.962;2023-06-14T05:26:25;4.93;;;3.88;;
49978;SDS011;35869;50.990;6.962;2023-06-14T05:31:26;5.20;;;3.95;;
49978;SDS011;35869;50.990;6.962;2023-06-14T05:41:27;6.15;;;3.55;;
49978;SDS011;35869;50.990;6.962;2023-06-14T05:51:27;5.93;;;3.45;;
49978;SDS011;35869;50.990;6.962;2023-06-14T05:56:27;4.80;;;3.47;;
49978;SDS011;35869;50.990;6.962;2023-06-14T06:01:28;5.07;;;3.47;;
49978;SDS011;35869;50.990;6.962;2023-06-14T06:06:28;4.30;;;3.40;;
49978;SDS011;35869;50.990;6.962;2023-06-14T06:11:29;4.17;;;2.87;;
49978;SDS011;35869;50.990;6.962;2023-06-14T06:16:29;5.68;;;2.78;;
49978;SDS011;35869;50.990;6.962;2023-06-14T06:21:32;7.43;;;3.63;;
49978;SDS011;35869;50.990;6.962;2023-06-14T06:26:32;5.57;;;3.55;;
49978;SDS011;35869;50.990;6.962;2023-06-14T06:36:33;3.05;;;2.58;;
49978;SDS011;35869;50.990;6.962;2023-06-14T06:41:34;3.15;;;2.85;;
49978;SDS011;35869;50.990;6.962;2023-06-14T06:46:34;7.80;;;3.55;;
49978;SDS011;35869;50.990;6.962;2023-06-14T06:51:42;5.28;;;2.80;;
49978;SDS011;35869;50.990;6.962;2023-06-14T06:56:42;8.18;;;3.50;;
49978;SDS011;35869;50.990;6.962;2023-06-14T07:01:43;3.08;;;2.35;;
49978;SDS011;35869;50.990;6.962;2023-06-14T07:06:43;6.97;;;2.90;;
49978;SDS011;35869;50.990;6.962;2023-06-14T07:11:44;5.15;;;2.90;;
49978;SDS011;35869;50.990;6.962;2023-06-14T07:16:44;4.38;;;2.67;;
49978;SDS011;35869;50.990;6.962;2023-06-14T07:21:44;6.50;;;2.77;;
49978;SDS011;35869;50.990;6.962;2023-06-14T07:26:44;3.60;;;1.90;;
49978;SDS011;35869;50.990;6.962;2023-06-14T07:31:45;3.80;;;2.00;;
49978;SDS011;35869;50.990;6.962;2023-06-14T07:36:45;3.33;;;1.93;;
49978;SDS011;35869;50.990;6.962;2023-06-14T07:41:45;3.17;;;1.77;;
49978;SDS011;35869;50.990;6.962;2023-06-14T07:46:46;2.37;;;1.67;;
49978;SDS011;35869;50.990;6.962;2023-06-14T07:51:46;3.27;;;1.50;;
49978;SDS011;35869;50.990;6.962;2023-06-14T07:56:46;2.30;;;1.33;;
49978;SDS011;35869;50.990;6.962;2023-06-14T08:01:46;1.47;;;1.30;;
49978;SDS011;35869;50.990;6.962;2023-06-14T08:06:47;2.63;;;1.37;;
49978;SDS011;35869;50.990;6.962;2023-06-14T08:11:47;2.33;;;0.93;;
49978;SDS011;35869;50.990;6.962;2023-06-14T08:16:47;1.75;;;1.10;;
49978;SDS011;35869;50.990;6.962;2023-06-14T08:21:47;3.00;;;1.35;;
49978;SDS011;35869;50.990;6.962;2023-06-14T08:26:48;1.10;;;1.00;;
49978;SDS011;35869;50.990;6.962;2023-06-14T08:36:58;2.10;;;1.10;;
49978;SDS011;35869;50.990;6.962;2023-06-14T08:42:14;1.93;;;1.07;;
49978;SDS011;35869;50.990;6.962;2023-06-14T08:47:18;1.50;;;1.15;;
49978;SDS011;35869;50.990;6.962;2023-06-14T08:52:19;1.70;;;1.13;;
49978;SDS011;35869;50.990;6.962;2023-06-14T09:02:55;1.60;;;1.23;;
49978;SDS011;35869;50.990;6.962;2023-06-14T09:07:56;3.10;;;1.23;;
49978;SDS011;35869;50.990;6.962;2023-06-14T09:13:00;1.63;;;1.10;;
49978;SDS011;35869;50.990;6.962;2023-06-14T09:18:01;1.98;;;1.40;;
49978;SDS011;35869;50.990;6.962;2023-06-14T09:23:06;3.28;;;1.25;;
49978;SDS011;35869;50.990;6.962;2023-06-14T09:28:07;4.25;;;1.33;;
49978;SDS011;35869;50.990;6.962;2023-06-14T09:33:07;1.63;;;1.20;;
49978;SDS011;35869;50.990;6.962;2023-06-14T09:38:08;2.07;;;1.10;;
49978;SDS011;35869;50.990;6.962;2023-06-14T09:43:08;2.70;;;1.40;;
49978;SDS011;35869;50.990;6.962;2023-06-14T09:48:08;1.65;;;1.10;;
49978;SDS011;35869;50.990;6.962;2023-06-14T09:53:10;5.82;;;1.45;;
49978;SDS011;35869;50.990;6.962;2023-06-14T09:58:11;2.35;;;1.23;;
49978;SDS011;35869;50.990;6.962;2023-06-14T10:03:14;3.17;;;1.48;;
49978;SDS011;35869;50.990;6.962;2023-06-14T10:08:23;2.47;;;1.42;;
49978;SDS011;35869;50.990;6.962;2023-06-14T10:13:27;2.75;;;1.10;;
49978;SDS011;35869;50.990;6.962;2023-06-14T10:24:04;2.97;;;1.75;;
49978;SDS011;35869;50.990;6.962;2023-06-14T10:29:07;1.55;;;1.45;;
49978;SDS011;35869;50.990;6.962;2023-06-14T10:34:08;3.03;;;1.30;;
49978;SDS011;35869;50.990;6.962;2023-06-14T10:39:16;3.63;;;1.90;;
49978;SDS011;35869;50.990;6.962;2023-06-14T10:49:40;2.60;;;1.15;;
49978;SDS011;35869;50.990;6.962;2023-06-14T10:54:55;2.40;;;1.48;;
49978;SDS011;35869;50.990;6.962;2023-06-14T11:00:18;2.15;;;1.50;;
49978;SDS011;35869;50.990;6.962;2023-06-14T11:05:23;1.48;;;0.88;;
49978;SDS011;35869;50.990;6.962;2023-06-14T11:10:26;3.10;;;1.52;;
49978;SDS011;35869;50.990;6.962;2023-06-14T11:15:43;4.60;;;1.33;;
49978;SDS011;35869;50.990;6.962;2023-06-14T11:20:46;3.72;;;1.73;;
49978;SDS011;35869;50.990;6.962;2023-06-14T11:25:50;1.80;;;1.30;;
49978;SDS011;35869;50.990;6.962;2023-06-14T11:31:00;1.77;;;1.30;;
49978;SDS011;35869;50.990;6.962;2023-06-14T11:36:01;1.70;;;1.30;;
49978;SDS011;35869;50.990;6.962;2023-06-14T11:41:03;2.17;;;1.75;;
49978;SDS011;35869;50.990;6.962;2023-06-14T11:46:22;6.70;;;1.40;;
49978;SDS011;35869;50.990;6.962;2023-06-14T11:51:26;1.60;;;1.20;;
49978;SDS011;35869;50.990;6.962;2023-06-14T11:56:29;2.90;;;1.08;;
49978;SDS011;35869;50.990;6.962;2023-06-14T12:01:31;1.98;;;1.40;;
49978;SDS011;35869;50.990;6.962;2023-06-14T12:06:31;3.00;;;1.20;;
49978;SDS011;35869;50.990;6.962;2023-06-14T12:16:41;1.10;;;1.00;;
49978;SDS011;35869;50.990;6.962;2023-06-14T12:21:42;1.20;;;1.10;;
49978;SDS011;35869;50.990;6.962;2023-06-14T12:26:45;2.22;;;1.08;;
49978;SDS011;35869;50.990;6.962;2023-06-14T12:31:45;2.78;;;0.88;;
49978;SDS011;35869;50.990;6.962;2023-06-14T12:36:46;1.35;;;0.95;;
49978;SDS011;35869;50.990;6.962;2023-06-14T12:41:46;0.90;;;0.80;;
49978;SDS011;35869;50.990;6.962;2023-06-14T12:46:47;1.05;;;0.82;;
49978;SDS011;35869;50.990;6.962;2023-06-14T12:51:47;1.50;;;0.98;;
49978;SDS011;35869;50.990;6.962;2023-06-14T12:56:47;2.75;;;1.20;;
49978;SDS011;35869;50.990;6.962;2023-06-14T13:01:47;1.92;;;1.20;;
49978;SDS011;35869;50.990;6.962;2023-06-14T13:06:48;1.88;;;0.82;;
49978;SDS011;35869;50.990;6.962;2023-06-14T13:11:48;2.63;;;0.80;;
49978;SDS011;35869;50.990;6.962;2023-06-14T13:16:48;1.98;;;1.10;;
49978;SDS011;35869;50.990;6.962;2023-06-14T13:21:48;2.30;;;1.15;;
49978;SDS011;35869;50.990;6.962;2023-06-14T13:26:49;2.27;;;1.10;;
49978;SDS011;35869;50.990;6.962;2023-06-14T13:31:55;1.30;;;1.17;;
49978;SDS011;35869;50.990;6.962;2023-06-14T13:36:55;1.90;;;0.88;;
49978;SDS011;35869;50.990;6.962;2023-06-14T13:41:56;1.47;;;1.10;;
49978;SDS011;35869;50.990;6.962;2023-06-14T13:46:56;3.45;;;1.10;;
49978;SDS011;35869;50.990;6.962;2023-06-14T13:51:56;1.83;;;1.00;;
49978;SDS011;35869;50.990;6.962;2023-06-14T13:56:56;3.72;;;1.30;;
49978;SDS011;35869;50.990;6.962;2023-06-14T14:01:56;1.75;;;1.30;;
49978;SDS011;35869;50.990;6.962;2023-06-14T14:06:57;1.40;;;1.20;;
49978;SDS011;35869;50.990;6.962;2023-06-14T14:11:58;2.50;;;1.40;;
49978;SDS011;35869;50.990;6.962;2023-06-14T14:16:58;3.58;;;1.20;;
49978;SDS011;35869;50.990;6.962;2023-06-14T14:21:59;2.90;;;1.60;;
49978;SDS011;35869;50.990;6.962;2023-06-14T14:26:59;2.60;;;1.63;;
49978;SDS011;35869;50.990;6.962;2023-06-14T14:32:01;1.50;;;1.30;;
49978;SDS011;35869;50.990;6.962;2023-06-14T14:37:03;1.48;;;1.38;;
49978;SDS011;35869;50.990;6.962;2023-06-14T14:42:03;2.35;;;1.60;;
49978;SDS011;35869;50.990;6.962;2023-06-14T14:47:04;2.85;;;1.40;;
49978;SDS011;35869;50.990;6.962;2023-06-14T14:52:05;1.60;;;1.20;;
49978;SDS011;35869;50.990;6.962;2023-06-14T14:57:06;1.75;;;1.25;;
49978;SDS011;35869;50.990;6.962;2023-06-14T15:02:07;2.08;;;1.40;;
49978;SDS011;35869;50.990;6.962;2023-06-14T15:07:14;1.70;;;1.20;;
49978;SDS011;35869;50.990;6.962;2023-06-14T15:12:15;2.70;;;1.27;;
49978;SDS011;35869;50.990;6.962;2023-06-14T15:17:15;2.30;;;1.25;;
49978;SDS011;35869;50.990;6.962;2023-06-14T15:22:15;1.80;;;1.40;;
49978;SDS011;35869;50.990;6.962;2023-06-14T15:27:16;3.75;;;2.90;;
49978;SDS011;35869;50.990;6.962;2023-06-14T15:32:16;4.30;;;1.97;;
49978;SDS011;35869;50.990;6.962;2023-06-14T15:37:17;2.67;;;1.33;;
49978;SDS011;35869;50.990;6.962;2023-06-14T15:42:17;4.10;;;1.50;;
49978;SDS011;35869;50.990;6.962;2023-06-14T15:47:17;2.05;;;1.27;;
49978;SDS011;35869;50.990;6.962;2023-06-14T15:52:17;2.97;;;1.30;;
49978;SDS011;35869;50.990;6.962;2023-06-14T15:57:18;1.97;;;1.43;;
49978;SDS011;35869;50.990;6.962;2023-06-14T16:02:18;3.10;;;1.48;;
49978;SDS011;35869;50.990;6.962;2023-06-14T16:07:18;1.35;;;1.20;;
49978;SDS011;35869;50.990;6.962;2023-06-14T16:12:19;3.83;;;1.53;;
49978;SDS011;35869;50.990;6.962;2023-06-14T16:17:19;4.05;;;1.60;;
49978;SDS011;35869;50.990;6.962;2023-06-14T16:22:19;4.63;;;1.83;;
49978;SDS011;35869;50.990;6.962;2023-06-14T16:27:20;2.60;;;1.80;;
49978;SDS011;35869;50.990;6.962;2023-06-14T16:37:20;4.50;;;1.60;;
49978;SDS011;35869;50.990;6.962;2023-06-14T16:47:21;5.18;;;1.40;;
49978;SDS011;35869;50.990;6.962;2023-06-14T16:57:22;2.53;;;1.50;;
49978;SDS011;35869;50.990;6.962;2023-06-14T17:07:22;1.90;;;1.30;;
49978;SDS011;35869;50.990;6.962;2023-06-14T17:17:23;3.30;;;1.70;;
49978;SDS011;35869;50.990;6.962;2023-06-14T17:22:23;2.22;;;1.60;;
49978;SDS011;35869;50.990;6.962;2023-06-14T17:27:23;2.40;;;1.58;;
49978;SDS011;35869;50.990;6.962;2023-06-14T17:37:23;2.38;;;1.90;;
49978;SDS011;35869;50.990;6.962;2023-06-14T17:42:23;3.15;;;1.73;;
49978;SDS011;35869;50.990;6.962;2023-06-14T17:47:24;2.95;;;1.85;;
49978;SDS011;35869;50.990;6.962;2023-06-14T17:52:25;2.55;;;1.85;;
49978;SDS011;35869;50.990;6.962;2023-06-14T17:57:25;1.70;;;1.60;;
49978;SDS011;35869;50.990;6.962;2023-06-14T18:02:25;3.75;;;1.88;;
49978;SDS011;35869;50.990;6.962;2023-06-14T18:07:25;4.70;;;1.70;;
49978;SDS011;35869;50.990;6.962;2023-06-14T18:12:26;2.20;;;2.00;;
49978;SDS011;35869;50.990;6.962;2023-06-14T18:17:26;8.32;;;1.60;;
49978;SDS011;35869;50.990;6.962;2023-06-14T18:22:26;2.60;;;2.17;;
49978;SDS011;35869;50.990;6.962;2023-06-14T18:27:26;2.33;;;2.13;;
49978;SDS011;35869;50.990;6.962;2023-06-14T18:32:26;5.28;;;3.58;;
49978;SDS011;35869;50.990;6.962;2023-06-14T18:37:27;3.05;;;2.50;;
49978;SDS011;35869;50.990;6.962;2023-06-14T18:42:27;9.80;;;3.70;;
49978;SDS011;35869;50.990;6.962;2023-06-14T18:47:27;2.97;;;2.30;;
49978;SDS011;35869;50.990;6.962;2023-06-14T18:52:27;3.53;;;2.10;;
49978;SDS011;35869;50.990;6.962;2023-06-14T18:57:27;2.10;;;1.90;;
49978;SDS011;35869;50.990;6.962;2023-06-14T19:02:28;3.15;;;2.17;;
49978;SDS011;35869;50.990;6.962;2023-06-14T19:07:28;2.63;;;2.13;;
49978;SDS011;35869;50.990;6.962;2023-06-14T19:12:28;4.15;;;3.15;;
49978;SDS011;35869;50.990;6.962;2023-06-14T19:17:28;7.07;;;3.90;;
49978;SDS011;35869;50.990;6.962;2023-06-14T19:22:28;3.88;;;3.40;;
49978;SDS011;35869;50.990;6.962;2023-06-14T19:27:29;4.70;;;3.03;;
49978;SDS011;35869;50.990;6.962;2023-06-14T19:32:29;4.13;;;3.72;;
49978;SDS011;35869;50.990;6.962;2023-06-14T19:37:30;2.90;;;2.33;;
49978;SDS011;35869;50.990;6.962;2023-06-14T19:42:31;7.43;;;4.55;;
49978;SDS011;35869;50.990;6.962;2023-06-14T19:47:33;4.63;;;2.40;;
49978;SDS011;35869;50.990;6.962;2023-06-14T19:52:34;2.38;;;2.10;;
49978;SDS011;35869;50.990;6.962;2023-06-14T19:57:34;2.05;;;1.90;;
49978;SDS011;35869;50.990;6.962;2023-06-14T20:02:35;3.92;;;2.25;;
49978;SDS011;35869;50.990;6.962;2023-06-14T20:07:35;2.75;;;2.03;;
49978;SDS011;35869;50.990;6.962;2023-06-14T20:12:35;2.95;;;2.20;;
49978;SDS011;35869;50.990;6.962;2023-06-14T20:17:37;2.45;;;2.25;;
49978;SDS011;35869;50.990;6.962;2023-06-14T20:22:37;5.85;;;2.00;;
49978;SDS011;35869;50.990;6.962;2023-06-14T20:27:38;2.20;;;1.70;;
49978;SDS011;35869;50.990;6.962;2023-06-14T20:32:39;5.43;;;1.83;;
49978;SDS011;35869;50.990;6.962;2023-06-14T20:37:39;2.85;;;2.15;;
49978;SDS011;35869;50.990;6.962;2023-06-14T20:42:40;3.60;;;2.08;;
49978;SDS011;35869;50.990;6.962;2023-06-14T20:47:41;2.33;;;1.95;;
49978;SDS011;35869;50.990;6.962;2023-06-14T20:52:42;4.25;;;1.40;;
49978;SDS011;35869;50.990;6.962;2023-06-14T20:57:42;2.27;;;1.50;;
49978;SDS011;35869;50.990;6.962;2023-06-14T21:02:42;3.92;;;1.80;;
49978;SDS011;35869;50.990;6.962;2023-06-14T21:07:43;2.78;;;1.70;;
49978;SDS011;35869;50.990;6.962;2023-06-14T21:12:43;2.20;;;2.00;;
49978;SDS011;35869;50.990;6.962;2023-06-14T21:17:43;2.55;;;2.00;;
49978;SDS011;35869;50.990;6.962;2023-06-14T21:22:43;3.38;;;1.73;;
49978;SDS011;35869;50.990;6.962;2023-06-14T21:27:43;2.25;;;2.05;;
49978;SDS011;35869;50.990;6.962;2023-06-14T21:32:44;3.45;;;2.10;;
49978;SDS011;35869;50.990;6.962;2023-06-14T21:37:44;1.50;;;1.40;;
49978;SDS011;35869;50.990;6.962;2023-06-14T21:42:44;2.35;;;2.08;;
49978;SDS011;35869;50.990;6.962;2023-06-14T21:47:44;2.58;;;2.05;;
49978;SDS011;35869;50.990;6.962;2023-06-14T21:52:44;2.05;;;1.90;;
49978;SDS011;35869;50.990;6.962;2023-06-14T21:57:45;2.90;;;2.60;;
49978;SDS011;35869;50.990;6.962;2023-06-14T22:02:45;1.95;;;1.85;;
49978;SDS011;35869;50.990;6.962;2023-06-14T22:07:45;2.38;;;1.80;;
49978;SDS011;35869;50.990;6.962;2023-06-14T22:12:46;3.58;;;2.03;;
49978;SDS011;35869;50.990;6.962;2023-06-14T22:17:46;1.73;;;1.63;;
49978;SDS011;35869;50.990;6.962;2023-06-14T22:22:46;2.20;;;1.98;;
49978;SDS011;35869;50.990;6.962;2023-06-14T22:27:46;3.67;;;1.85;;
49978;SDS011;35869;50.990;6.962;2023-06-14T22:32:47;2.63;;;1.60;;
49978;SDS011;35869;50.990;6.962;2023-06-14T22:37:49;2.42;;;1.80;;
49978;SDS011;35869;50.990;6.962;2023-06-14T22:42:49;4.13;;;1.60;;
49978;SDS011;35869;50.990;6.962;2023-06-14T22:47:49;2.65;;;2.10;;
49978;SDS011;35869;50.990;6.962;2023-06-14T22:52:50;3.07;;;1.97;;
49978;SDS011;35869;50.990;6.962;2023-06-14T22:57:50;3.80;;;1.90;;
49978;SDS011;35869;50.990;6.962;2023-06-14T23:02:50;2.22;;;1.90;;
49978;SDS011;35869;50.990;6.962;2023-06-14T23:07:50;1.65;;;1.55;;
49978;SDS011;35869;50.990;6.962;2023-06-14T23:12:51;1.73;;;1.52;;
49978;SDS011;35869;50.990;6.962;2023-06-14T23:17:51;2.63;;;1.70;;
49978;SDS011;35869;50.990;6.962;2023-06-14T23:22:51;2.57;;;2.00;;
49978;SDS011;35869;50.990;6.962;2023-06-14T23:27:51;2.28;;;1.90;;
49978;SDS011;35869;50.990;6.962;2023-06-14T23:32:51;4.72;;;1.90;;
49978;SDS011;35869;50.990;6.962;2023-06-14T23:37:52;1.77;;;1.67;;
49978;SDS011;35869;50.990;6.962;2023-06-14T23:42:52;2.00;;;1.55;;
49978;SDS011;35869;50.990;6.962;2023-06-14T23:47:52;2.88;;;1.65;;
49978;SDS011;35869;50.990;6.962;2023-06-14T23:52:52;3.00;;;1.87;;
49978;SDS011;35869;50.990;6.962;2023-06-14T23:57:53;3.90;;;1.60;;
